sensor_id;sensor_type;location;lat;lon;timestamp;P1;durP1;ratioP1;P2;durP2;ratioP2
70908;SDS011;58554;52.006;5.926;2023-04-03T00:00:35;5.67;;;2.80;;
70908;SDS011;58554;52.006;5.926;2023-04-03T00:03:04;4.80;;;2.50;;
70908;SDS011;58554;52.006;5.926;2023-04-03T00:05:31;4.13;;;2.60;;
70908;SDS011;58554;52.006;5.926;2023-04-03T00:07:57;3.65;;;2.38;;
70908;SDS011;58554;52.006;5.926;2023-04-03T00:10:24;4.60;;;2.93;;
70908;SDS011;58554;52.006;5.926;2023-04-03T00:12:50;4.88;;;2.72;;
70908;SDS011;58554;52.006;5.926;2023-04-03T00:15:17;4.53;;;2.83;;
70908;SDS011;58554;52.006;5.926;2023-04-03T00:17:44;5.15;;;2.78;;
70908;SDS011;58554;52.006;5.926;2023-04-03T00:20:13;4.45;;;2.78;;
70908;SDS011;58554;52.006;5.926;2023-04-03T00:22:39;5.45;;;2.67;;
70908;SDS011;58554;52.006;5.926;2023-04-03T00:25:07;6.07;;;3.10;;
70908;SDS011;58554;52.006;5.926;2023-04-03T00:27:35;5.50;;;2.93;;
70908;SDS011;58554;52.006;5.926;2023-04-03T00:30:03;4.83;;;2.23;;
70908;SDS011;58554;52.006;5.926;2023-04-03T00:32:32;4.47;;;2.50;;
70908;SDS011;58554;52.006;5.926;2023-04-03T00:34:59;5.77;;;2.47;;
70908;SDS011;58554;52.006;5.926;2023-04-03T00:37:28;6.00;;;2.60;;
70908;SDS011;58554;52.006;5.926;2023-04-03T00:39:54;4.85;;;2.65;;
70908;SDS011;58554;52.006;5.926;2023-04-03T00:42:21;5.83;;;2.90;;
70908;SDS011;58554;52.006;5.926;2023-04-03T00:47:52;5.25;;;2.50;;
70908;SDS011;58554;52.006;5.926;2023-04-03T00:50:20;4.60;;;2.90;;
70908;SDS011;58554;52.006;5.926;2023-04-03T00:52:49;4.47;;;2.50;;
70908;SDS011;58554;52.006;5.926;2023-04-03T00:55:17;4.10;;;2.47;;
70908;SDS011;58554;52.006;5.926;2023-04-03T00:57:45;4.03;;;2.23;;
70908;SDS011;58554;52.006;5.926;2023-04-03T01:00:14;5.53;;;2.70;;
70908;SDS011;58554;52.006;5.926;2023-04-03T01:02:45;4.93;;;2.38;;
70908;SDS011;58554;52.006;5.926;2023-04-03T01:05:11;4.67;;;2.57;;
70908;SDS011;58554;52.006;5.926;2023-04-03T01:07:41;4.65;;;2.15;;
70908;SDS011;58554;52.006;5.926;2023-04-03T01:10:12;3.80;;;2.50;;
70908;SDS011;58554;52.006;5.926;2023-04-03T01:12:43;5.45;;;2.50;;
70908;SDS011;58554;52.006;5.926;2023-04-03T01:15:13;4.00;;;2.50;;
70908;SDS011;58554;52.006;5.926;2023-04-03T01:17:43;5.57;;;2.50;;
70908;SDS011;58554;52.006;5.926;2023-04-03T01:20:24;4.70;;;2.33;;
70908;SDS011;58554;52.006;5.926;2023-04-03T01:23:27;5.97;;;2.30;;
70908;SDS011;58554;52.006;5.926;2023-04-03T01:26:12;3.73;;;2.10;;
70908;SDS011;58554;52.006;5.926;2023-04-03T01:28:38;3.78;;;2.50;;
70908;SDS011;58554;52.006;5.926;2023-04-03T01:31:08;4.55;;;2.30;;
70908;SDS011;58554;52.006;5.926;2023-04-03T01:33:47;5.33;;;2.57;;
70908;SDS011;58554;52.006;5.926;2023-04-03T01:36:15;4.07;;;2.50;;
70908;SDS011;58554;52.006;5.926;2023-04-03T01:38:47;4.37;;;2.80;;
70908;SDS011;58554;52.006;5.926;2023-04-03T01:41:14;6.22;;;2.67;;
70908;SDS011;58554;52.006;5.926;2023-04-03T01:43:41;6.80;;;2.80;;
70908;SDS011;58554;52.006;5.926;2023-04-03T01:46:07;4.70;;;2.50;;
70908;SDS011;58554;52.006;5.926;2023-04-03T01:48:34;5.00;;;2.57;;
70908;SDS011;58554;52.006;5.926;2023-04-03T01:51:03;5.75;;;2.53;;
70908;SDS011;58554;52.006;5.926;2023-04-03T01:53:30;5.13;;;2.50;;
70908;SDS011;58554;52.006;5.926;2023-04-03T01:55:56;5.00;;;2.47;;
70908;SDS011;58554;52.006;5.926;2023-04-03T01:58:23;5.47;;;2.60;;
70908;SDS011;58554;52.006;5.926;2023-04-03T02:00:49;4.10;;;2.55;;
70908;SDS011;58554;52.006;5.926;2023-04-03T02:03:17;5.10;;;2.70;;
70908;SDS011;58554;52.006;5.926;2023-04-03T02:05:44;4.35;;;2.67;;
70908;SDS011;58554;52.006;5.926;2023-04-03T02:08:13;7.57;;;2.80;;
70908;SDS011;58554;52.006;5.926;2023-04-03T02:10:40;3.40;;;2.40;;
70908;SDS011;58554;52.006;5.926;2023-04-03T02:13:06;5.73;;;2.33;;
70908;SDS011;58554;52.006;5.926;2023-04-03T02:15:33;6.53;;;3.05;;
70908;SDS011;58554;52.006;5.926;2023-04-03T02:17:59;6.57;;;2.50;;
70908;SDS011;58554;52.006;5.926;2023-04-03T02:20:26;4.18;;;2.65;;
70908;SDS011;58554;52.006;5.926;2023-04-03T02:22:52;5.37;;;2.63;;
70908;SDS011;58554;52.006;5.926;2023-04-03T02:25:21;4.97;;;2.60;;
70908;SDS011;58554;52.006;5.926;2023-04-03T02:27:48;5.30;;;2.43;;
70908;SDS011;58554;52.006;5.926;2023-04-03T02:30:14;4.55;;;2.65;;
70908;SDS011;58554;52.006;5.926;2023-04-03T02:32:41;4.77;;;2.47;;
70908;SDS011;58554;52.006;5.926;2023-04-03T02:35:08;5.63;;;2.72;;
70908;SDS011;58554;52.006;5.926;2023-04-03T02:37:35;5.73;;;2.80;;
70908;SDS011;58554;52.006;5.926;2023-04-03T02:40:03;7.53;;;2.87;;
70908;SDS011;58554;52.006;5.926;2023-04-03T02:42:35;4.80;;;2.53;;
70908;SDS011;58554;52.006;5.926;2023-04-03T02:45:02;4.15;;;2.50;;
70908;SDS011;58554;52.006;5.926;2023-04-03T02:47:31;4.73;;;2.70;;
70908;SDS011;58554;52.006;5.926;2023-04-03T02:49:57;6.72;;;2.85;;
70908;SDS011;58554;52.006;5.926;2023-04-03T02:52:24;6.10;;;2.60;;
70908;SDS011;58554;52.006;5.926;2023-04-03T02:54:50;4.65;;;2.75;;
70908;SDS011;58554;52.006;5.926;2023-04-03T02:57:17;5.90;;;2.70;;
70908;SDS011;58554;52.006;5.926;2023-04-03T02:59:46;6.07;;;3.05;;
70908;SDS011;58554;52.006;5.926;2023-04-03T03:02:12;6.20;;;3.00;;
70908;SDS011;58554;52.006;5.926;2023-04-03T03:04:39;5.25;;;2.50;;
70908;SDS011;58554;52.006;5.926;2023-04-03T03:07:05;5.47;;;2.60;;
70908;SDS011;58554;52.006;5.926;2023-04-03T03:09:32;5.20;;;2.75;;
70908;SDS011;58554;52.006;5.926;2023-04-03T03:11:58;5.73;;;3.10;;
70908;SDS011;58554;52.006;5.926;2023-04-03T03:14:25;5.45;;;3.10;;
70908;SDS011;58554;52.006;5.926;2023-04-03T03:16:54;5.05;;;2.58;;
70908;SDS011;58554;52.006;5.926;2023-04-03T03:19:20;4.63;;;2.60;;
70908;SDS011;58554;52.006;5.926;2023-04-03T03:21:47;4.70;;;2.80;;
70908;SDS011;58554;52.006;5.926;2023-04-03T03:24:14;5.70;;;2.70;;
70908;SDS011;58554;52.006;5.926;2023-04-03T03:26:40;5.03;;;2.90;;
70908;SDS011;58554;52.006;5.926;2023-04-03T03:29:07;4.57;;;2.77;;
70908;SDS011;58554;52.006;5.926;2023-04-03T03:31:34;4.47;;;2.67;;
70908;SDS011;58554;52.006;5.926;2023-04-03T03:34:03;4.57;;;2.78;;
70908;SDS011;58554;52.006;5.926;2023-04-03T03:36:29;7.30;;;2.77;;
70908;SDS011;58554;52.006;5.926;2023-04-03T03:38:56;4.83;;;2.80;;
70908;SDS011;58554;52.006;5.926;2023-04-03T03:41:22;4.90;;;2.53;;
70908;SDS011;58554;52.006;5.926;2023-04-03T03:43:49;6.47;;;2.87;;
70908;SDS011;58554;52.006;5.926;2023-04-03T03:46:15;6.57;;;2.90;;
70908;SDS011;58554;52.006;5.926;2023-04-03T03:48:42;4.83;;;3.00;;
70908;SDS011;58554;52.006;5.926;2023-04-03T03:51:11;6.72;;;3.03;;
70908;SDS011;58554;52.006;5.926;2023-04-03T03:53:37;6.45;;;3.45;;
70908;SDS011;58554;52.006;5.926;2023-04-03T03:56:04;5.47;;;3.00;;
70908;SDS011;58554;52.006;5.926;2023-04-03T03:58:31;5.50;;;3.00;;
70908;SDS011;58554;52.006;5.926;2023-04-03T04:00:59;4.85;;;2.90;;
70908;SDS011;58554;52.006;5.926;2023-04-03T04:03:27;5.20;;;3.05;;
70908;SDS011;58554;52.006;5.926;2023-04-03T04:05:54;7.75;;;3.10;;
70908;SDS011;58554;52.006;5.926;2023-04-03T04:08:23;4.40;;;2.73;;
70908;SDS011;58554;52.006;5.926;2023-04-03T04:10:50;5.57;;;3.03;;
70908;SDS011;58554;52.006;5.926;2023-04-03T04:13:17;7.43;;;3.10;;
70908;SDS011;58554;52.006;5.926;2023-04-03T04:15:43;6.77;;;3.03;;
70908;SDS011;58554;52.006;5.926;2023-04-03T04:18:10;5.53;;;3.03;;
70908;SDS011;58554;52.006;5.926;2023-04-03T04:20:36;6.55;;;3.17;;
70908;SDS011;58554;52.006;5.926;2023-04-03T04:23:03;6.95;;;3.08;;
70908;SDS011;58554;52.006;5.926;2023-04-03T04:25:32;6.70;;;3.40;;
70908;SDS011;58554;52.006;5.926;2023-04-03T04:27:59;5.33;;;2.73;;
70908;SDS011;58554;52.006;5.926;2023-04-03T04:30:25;7.32;;;2.95;;
70908;SDS011;58554;52.006;5.926;2023-04-03T04:32:52;4.85;;;2.75;;
70908;SDS011;58554;52.006;5.926;2023-04-03T04:35:18;4.97;;;3.00;;
70908;SDS011;58554;52.006;5.926;2023-04-03T04:37:45;8.47;;;3.13;;
70908;SDS011;58554;52.006;5.926;2023-04-03T04:40:11;6.27;;;2.83;;
70908;SDS011;58554;52.006;5.926;2023-04-03T04:42:40;5.10;;;3.30;;
70908;SDS011;58554;52.006;5.926;2023-04-03T04:45:07;5.67;;;3.20;;
70908;SDS011;58554;52.006;5.926;2023-04-03T04:47:35;7.13;;;3.10;;
70908;SDS011;58554;52.006;5.926;2023-04-03T04:50:02;7.53;;;3.00;;
70908;SDS011;58554;52.006;5.926;2023-04-03T04:52:29;5.18;;;2.95;;
70908;SDS011;58554;52.006;5.926;2023-04-03T04:54:56;5.27;;;2.67;;
70908;SDS011;58554;52.006;5.926;2023-04-03T04:57:22;5.43;;;2.92;;
70908;SDS011;58554;52.006;5.926;2023-04-03T04:59:51;6.65;;;2.70;;
70908;SDS011;58554;52.006;5.926;2023-04-03T05:02:18;5.53;;;2.63;;
70908;SDS011;58554;52.006;5.926;2023-04-03T05:04:44;6.37;;;2.93;;
70908;SDS011;58554;52.006;5.926;2023-04-03T05:07:11;5.53;;;2.80;;
70908;SDS011;58554;52.006;5.926;2023-04-03T05:09:37;4.80;;;2.83;;
70908;SDS011;58554;52.006;5.926;2023-04-03T05:12:04;7.18;;;2.65;;
70908;SDS011;58554;52.006;5.926;2023-04-03T05:14:31;6.63;;;3.10;;
70908;SDS011;58554;52.006;5.926;2023-04-03T05:17:00;5.82;;;2.22;;
70908;SDS011;58554;52.006;5.926;2023-04-03T05:19:26;5.10;;;2.85;;
70908;SDS011;58554;52.006;5.926;2023-04-03T05:21:53;4.32;;;2.58;;
70908;SDS011;58554;52.006;5.926;2023-04-03T05:24:19;5.63;;;2.67;;
70908;SDS011;58554;52.006;5.926;2023-04-03T05:26:46;5.23;;;2.50;;
70908;SDS011;58554;52.006;5.926;2023-04-03T05:29:13;5.20;;;2.80;;
70908;SDS011;58554;52.006;5.926;2023-04-03T05:31:39;5.82;;;2.80;;
70908;SDS011;58554;52.006;5.926;2023-04-03T05:34:08;8.50;;;2.80;;
70908;SDS011;58554;52.006;5.926;2023-04-03T05:36:35;4.60;;;2.80;;
70908;SDS011;58554;52.006;5.926;2023-04-03T05:39:02;5.53;;;2.80;;
70908;SDS011;58554;52.006;5.926;2023-04-03T05:41:28;6.28;;;2.80;;
70908;SDS011;58554;52.006;5.926;2023-04-03T05:43:55;5.93;;;2.70;;
70908;SDS011;58554;52.006;5.926;2023-04-03T05:46:21;4.40;;;2.50;;
70908;SDS011;58554;52.006;5.926;2023-04-03T05:48:48;7.45;;;2.60;;
70908;SDS011;58554;52.006;5.926;2023-04-03T05:51:17;7.40;;;2.90;;
70908;SDS011;58554;52.006;5.926;2023-04-03T05:53:49;6.30;;;2.92;;
70908;SDS011;58554;52.006;5.926;2023-04-03T05:56:25;6.18;;;2.83;;
70908;SDS011;58554;52.006;5.926;2023-04-03T05:58:52;8.57;;;2.88;;
70908;SDS011;58554;52.006;5.926;2023-04-03T06:01:18;7.13;;;3.37;;
70908;SDS011;58554;52.006;5.926;2023-04-03T06:03:45;6.28;;;2.90;;
70908;SDS011;58554;52.006;5.926;2023-04-03T06:06:12;4.30;;;2.60;;
70908;SDS011;58554;52.006;5.926;2023-04-03T06:08:42;5.20;;;3.10;;
70908;SDS011;58554;52.006;5.926;2023-04-03T06:11:08;7.05;;;2.92;;
70908;SDS011;58554;52.006;5.926;2023-04-03T06:13:35;7.27;;;2.90;;
70908;SDS011;58554;52.006;5.926;2023-04-03T06:16:01;8.10;;;3.03;;
70908;SDS011;58554;52.006;5.926;2023-04-03T06:18:28;7.43;;;3.00;;
70908;SDS011;58554;52.006;5.926;2023-04-03T06:20:54;6.93;;;3.80;;
70908;SDS011;58554;52.006;5.926;2023-04-03T06:23:21;5.45;;;2.90;;
70908;SDS011;58554;52.006;5.926;2023-04-03T06:25:50;7.20;;;2.73;;
70908;SDS011;58554;52.006;5.926;2023-04-03T06:28:16;6.13;;;2.60;;
70908;SDS011;58554;52.006;5.926;2023-04-03T06:30:43;4.27;;;2.50;;
70908;SDS011;58554;52.006;5.926;2023-04-03T06:33:09;6.97;;;2.63;;
70908;SDS011;58554;52.006;5.926;2023-04-03T06:35:36;6.40;;;2.10;;
70908;SDS011;58554;52.006;5.926;2023-04-03T06:38:02;5.87;;;2.77;;
70908;SDS011;58554;52.006;5.926;2023-04-03T06:40:29;6.53;;;3.08;;
70908;SDS011;58554;52.006;5.926;2023-04-03T06:42:58;5.43;;;2.73;;
70908;SDS011;58554;52.006;5.926;2023-04-03T06:45:25;5.73;;;2.60;;
70908;SDS011;58554;52.006;5.926;2023-04-03T06:47:51;5.57;;;2.75;;
70908;SDS011;58554;52.006;5.926;2023-04-03T06:50:18;4.33;;;2.63;;
70908;SDS011;58554;52.006;5.926;2023-04-03T06:52:44;5.10;;;2.33;;
70908;SDS011;58554;52.006;5.926;2023-04-03T06:55:11;4.07;;;2.45;;
70908;SDS011;58554;52.006;5.926;2023-04-03T06:57:37;5.55;;;2.72;;
70908;SDS011;58554;52.006;5.926;2023-04-03T07:00:07;7.33;;;2.77;;
70908;SDS011;58554;52.006;5.926;2023-04-03T07:02:36;5.30;;;2.73;;
70908;SDS011;58554;52.006;5.926;2023-04-03T07:05:03;5.45;;;2.70;;
70908;SDS011;58554;52.006;5.926;2023-04-03T07:07:31;6.18;;;2.75;;
70908;SDS011;58554;52.006;5.926;2023-04-03T07:09:58;7.13;;;2.80;;
70908;SDS011;58554;52.006;5.926;2023-04-03T07:12:24;5.55;;;2.88;;
70908;SDS011;58554;52.006;5.926;2023-04-03T07:14:51;5.10;;;2.67;;
70908;SDS011;58554;52.006;5.926;2023-04-03T07:17:20;4.57;;;2.45;;
70908;SDS011;58554;52.006;5.926;2023-04-03T07:19:46;5.30;;;2.37;;
70908;SDS011;58554;52.006;5.926;2023-04-03T07:22:13;4.50;;;2.20;;
70908;SDS011;58554;52.006;5.926;2023-04-03T07:24:39;6.45;;;2.70;;
70908;SDS011;58554;52.006;5.926;2023-04-03T07:27:06;5.63;;;2.47;;
70908;SDS011;58554;52.006;5.926;2023-04-03T07:29:32;3.90;;;2.15;;
70908;SDS011;58554;52.006;5.926;2023-04-03T07:31:59;3.70;;;2.10;;
70908;SDS011;58554;52.006;5.926;2023-04-03T07:34:28;4.85;;;2.35;;
70908;SDS011;58554;52.006;5.926;2023-04-03T07:36:54;4.27;;;2.10;;
70908;SDS011;58554;52.006;5.926;2023-04-03T07:39:21;5.80;;;2.40;;
70908;SDS011;58554;52.006;5.926;2023-04-03T07:41:47;5.30;;;2.28;;
70908;SDS011;58554;52.006;5.926;2023-04-03T07:44:14;4.37;;;2.00;;
70908;SDS011;58554;52.006;5.926;2023-04-03T07:46:40;6.97;;;2.42;;
70908;SDS011;58554;52.006;5.926;2023-04-03T07:49:07;6.87;;;2.50;;
70908;SDS011;58554;52.006;5.926;2023-04-03T07:51:36;6.35;;;2.25;;
70908;SDS011;58554;52.006;5.926;2023-04-03T07:54:03;4.37;;;2.20;;
70908;SDS011;58554;52.006;5.926;2023-04-03T07:56:29;4.78;;;2.08;;
70908;SDS011;58554;52.006;5.926;2023-04-03T07:58:56;3.90;;;2.00;;
70908;SDS011;58554;52.006;5.926;2023-04-03T08:01:22;4.77;;;2.03;;
70908;SDS011;58554;52.006;5.926;2023-04-03T08:03:49;4.00;;;1.90;;
70908;SDS011;58554;52.006;5.926;2023-04-03T08:06:15;4.93;;;1.97;;
70908;SDS011;58554;52.006;5.926;2023-04-03T08:08:45;3.40;;;1.60;;
70908;SDS011;58554;52.006;5.926;2023-04-03T08:11:11;4.47;;;1.90;;
70908;SDS011;58554;52.006;5.926;2023-04-03T08:13:38;5.20;;;1.90;;
70908;SDS011;58554;52.006;5.926;2023-04-03T08:16:09;3.65;;;1.88;;
70908;SDS011;58554;52.006;5.926;2023-04-03T08:18:38;4.15;;;1.60;;
70908;SDS011;58554;52.006;5.926;2023-04-03T08:21:06;4.00;;;1.70;;
70908;SDS011;58554;52.006;5.926;2023-04-03T08:23:33;4.63;;;1.77;;
70908;SDS011;58554;52.006;5.926;2023-04-03T08:26:07;3.90;;;1.70;;
70908;SDS011;58554;52.006;5.926;2023-04-03T08:28:35;2.87;;;1.80;;
70908;SDS011;58554;52.006;5.926;2023-04-03T08:31:03;3.10;;;1.80;;
70908;SDS011;58554;52.006;5.926;2023-04-03T08:33:31;3.27;;;1.50;;
70908;SDS011;58554;52.006;5.926;2023-04-03T08:35:58;3.65;;;1.70;;
70908;SDS011;58554;52.006;5.926;2023-04-03T08:38:25;4.13;;;1.90;;
70908;SDS011;58554;52.006;5.926;2023-04-03T08:40:59;4.97;;;1.65;;
70908;SDS011;58554;52.006;5.926;2023-04-03T08:43:41;3.17;;;1.53;;
70908;SDS011;58554;52.006;5.926;2023-04-03T08:46:25;2.75;;;1.50;;
70908;SDS011;58554;52.006;5.926;2023-04-03T08:49:10;2.70;;;1.37;;
70908;SDS011;58554;52.006;5.926;2023-04-03T08:51:48;2.53;;;1.27;;
70908;SDS011;58554;52.006;5.926;2023-04-03T08:54:20;1.90;;;1.20;;
70908;SDS011;58554;52.006;5.926;2023-04-03T08:56:59;1.97;;;1.20;;
70908;SDS011;58554;52.006;5.926;2023-04-03T08:59:32;2.47;;;1.37;;
70908;SDS011;58554;52.006;5.926;2023-04-03T09:02:04;1.83;;;1.20;;
70908;SDS011;58554;52.006;5.926;2023-04-03T09:04:54;2.83;;;1.33;;
70908;SDS011;58554;52.006;5.926;2023-04-03T09:07:22;3.43;;;1.40;;
70908;SDS011;58554;52.006;5.926;2023-04-03T09:10:01;2.37;;;1.20;;
70908;SDS011;58554;52.006;5.926;2023-04-03T09:12:34;3.47;;;1.45;;
70908;SDS011;58554;52.006;5.926;2023-04-03T09:15:10;2.17;;;1.20;;
70908;SDS011;58554;52.006;5.926;2023-04-03T09:17:48;2.27;;;1.30;;
70908;SDS011;58554;52.006;5.926;2023-04-03T09:20:29;3.20;;;1.83;;
70908;SDS011;58554;52.006;5.926;2023-04-03T09:23:12;1.63;;;1.10;;
70908;SDS011;58554;52.006;5.926;2023-04-03T09:25:47;2.13;;;1.20;;
70908;SDS011;58554;52.006;5.926;2023-04-03T09:28:25;2.00;;;1.20;;
70908;SDS011;58554;52.006;5.926;2023-04-03T09:30:53;1.63;;;0.93;;
70908;SDS011;58554;52.006;5.926;2023-04-03T09:33:19;2.67;;;1.27;;
70908;SDS011;58554;52.006;5.926;2023-04-03T09:35:48;2.22;;;0.98;;
70908;SDS011;58554;52.006;5.926;2023-04-03T09:38:20;2.60;;;1.15;;
70908;SDS011;58554;52.006;5.926;2023-04-03T09:40:48;2.22;;;1.13;;
70908;SDS011;58554;52.006;5.926;2023-04-03T09:43:31;1.88;;;1.05;;
70908;SDS011;58554;52.006;5.926;2023-04-03T09:48:51;1.85;;;1.10;;
70908;SDS011;58554;52.006;5.926;2023-04-03T09:51:24;2.53;;;1.20;;
70908;SDS011;58554;52.006;5.926;2023-04-03T09:53:53;2.20;;;1.00;;
70908;SDS011;58554;52.006;5.926;2023-04-03T09:56:22;2.60;;;1.17;;
70908;SDS011;58554;52.006;5.926;2023-04-03T09:59:06;2.60;;;1.20;;
70908;SDS011;58554;52.006;5.926;2023-04-03T10:01:41;2.80;;;1.33;;
70908;SDS011;58554;52.006;5.926;2023-04-03T10:04:21;2.53;;;1.30;;
70908;SDS011;58554;52.006;5.926;2023-04-03T10:51:57;3.43;;;2.60;;
70908;SDS011;58554;52.006;5.926;2023-04-03T10:54:35;2.42;;;1.48;;
70908;SDS011;58554;52.006;5.926;2023-04-03T10:57:06;2.33;;;1.30;;
70908;SDS011;58554;52.006;5.926;2023-04-03T10:59:37;9.03;;;1.60;;
70908;SDS011;58554;52.006;5.926;2023-04-03T11:02:12;3.63;;;1.67;;
70908;SDS011;58554;52.006;5.926;2023-04-03T11:04:48;3.50;;;1.20;;
70908;SDS011;58554;52.006;5.926;2023-04-03T11:07:24;3.23;;;1.43;;
70908;SDS011;58554;52.006;5.926;2023-04-03T11:09:56;5.22;;;1.42;;
70908;SDS011;58554;52.006;5.926;2023-04-03T11:12:36;2.65;;;1.23;;
70908;SDS011;58554;52.006;5.926;2023-04-03T11:15:11;3.00;;;1.33;;
70908;SDS011;58554;52.006;5.926;2023-04-03T11:17:46;3.50;;;1.40;;
70908;SDS011;58554;52.006;5.926;2023-04-03T11:20:23;2.20;;;1.30;;
70908;SDS011;58554;52.006;5.926;2023-04-03T11:23:00;3.03;;;1.40;;
70908;SDS011;58554;52.006;5.926;2023-04-03T11:25:32;3.00;;;1.27;;
70908;SDS011;58554;52.006;5.926;2023-04-03T11:28:05;2.00;;;1.10;;
70908;SDS011;58554;52.006;5.926;2023-04-03T11:30:42;3.10;;;1.53;;
70908;SDS011;58554;52.006;5.926;2023-04-03T11:33:21;3.30;;;1.40;;
70908;SDS011;58554;52.006;5.926;2023-04-03T11:36:03;3.28;;;1.27;;
70908;SDS011;58554;52.006;5.926;2023-04-03T11:38:41;2.60;;;1.30;;
70908;SDS011;58554;52.006;5.926;2023-04-03T11:41:13;3.45;;;1.50;;
70908;SDS011;58554;52.006;5.926;2023-04-03T11:43:42;3.03;;;1.60;;
70908;SDS011;58554;52.006;5.926;2023-04-03T11:46:22;2.50;;;1.30;;
70908;SDS011;58554;52.006;5.926;2023-04-03T11:55:44;3.33;;;1.13;;
70908;SDS011;58554;52.006;5.926;2023-04-03T11:58:22;1.98;;;1.38;;
70908;SDS011;58554;52.006;5.926;2023-04-03T12:00:58;2.43;;;1.40;;
70908;SDS011;58554;52.006;5.926;2023-04-03T12:03:35;3.63;;;1.55;;
70908;SDS011;58554;52.006;5.926;2023-04-03T12:12:43;2.37;;;1.30;;
70908;SDS011;58554;52.006;5.926;2023-04-03T12:15:24;1.88;;;1.27;;
70908;SDS011;58554;52.006;5.926;2023-04-03T12:21:24;3.15;;;1.40;;
70908;SDS011;58554;52.006;5.926;2023-04-03T12:24:37;2.90;;;1.53;;
70908;SDS011;58554;52.006;5.926;2023-04-03T12:27:11;2.60;;;1.40;;
70908;SDS011;58554;52.006;5.926;2023-04-03T12:30:03;2.73;;;1.30;;
70908;SDS011;58554;52.006;5.926;2023-04-03T12:32:49;3.25;;;1.60;;
70908;SDS011;58554;52.006;5.926;2023-04-03T12:35:29;3.30;;;1.30;;
70908;SDS011;58554;52.006;5.926;2023-04-03T12:38:24;3.03;;;1.60;;
70908;SDS011;58554;52.006;5.926;2023-04-03T12:41:18;3.47;;;1.50;;
70908;SDS011;58554;52.006;5.926;2023-04-03T12:43:58;4.20;;;1.40;;
70908;SDS011;58554;52.006;5.926;2023-04-03T12:47:21;5.13;;;1.50;;
70908;SDS011;58554;52.006;5.926;2023-04-03T12:49:53;2.47;;;1.33;;
70908;SDS011;58554;52.006;5.926;2023-04-03T12:52:24;3.53;;;1.40;;
70908;SDS011;58554;52.006;5.926;2023-04-03T12:55:12;2.85;;;1.38;;
70908;SDS011;58554;52.006;5.926;2023-04-03T12:57:44;2.67;;;1.60;;
70908;SDS011;58554;52.006;5.926;2023-04-03T13:00:21;3.42;;;1.55;;
70908;SDS011;58554;52.006;5.926;2023-04-03T13:03:01;3.87;;;1.60;;
70908;SDS011;58554;52.006;5.926;2023-04-03T13:05:30;2.63;;;1.40;;
70908;SDS011;58554;52.006;5.926;2023-04-03T13:07:59;3.33;;;1.47;;
70908;SDS011;58554;52.006;5.926;2023-04-03T13:10:31;3.13;;;1.58;;
70908;SDS011;58554;52.006;5.926;2023-04-03T13:13:13;3.27;;;1.47;;
70908;SDS011;58554;52.006;5.926;2023-04-03T13:15:42;7.80;;;1.70;;
70908;SDS011;58554;52.006;5.926;2023-04-03T13:18:27;3.60;;;1.50;;
70908;SDS011;58554;52.006;5.926;2023-04-03T13:20:57;2.53;;;1.63;;
70908;SDS011;58554;52.006;5.926;2023-04-03T13:23:30;3.67;;;1.40;;
70908;SDS011;58554;52.006;5.926;2023-04-03T13:26:06;4.77;;;1.80;;
70908;SDS011;58554;52.006;5.926;2023-04-03T13:28:35;3.28;;;1.70;;
70908;SDS011;58554;52.006;5.926;2023-04-03T13:31:07;3.50;;;2.00;;
70908;SDS011;58554;52.006;5.926;2023-04-03T13:33:52;5.43;;;2.00;;
70908;SDS011;58554;52.006;5.926;2023-04-03T13:36:24;2.93;;;1.50;;
70908;SDS011;58554;52.006;5.926;2023-04-03T13:39:01;4.32;;;1.58;;
70908;SDS011;58554;52.006;5.926;2023-04-03T13:41:36;4.20;;;1.73;;
70908;SDS011;58554;52.006;5.926;2023-04-03T13:44:22;3.72;;;1.73;;
70908;SDS011;58554;52.006;5.926;2023-04-03T13:46:59;5.37;;;2.20;;
70908;SDS011;58554;52.006;5.926;2023-04-03T13:49:41;5.70;;;1.83;;
70908;SDS011;58554;52.006;5.926;2023-04-03T13:52:24;4.13;;;2.03;;
70908;SDS011;58554;52.006;5.926;2023-04-03T13:54:57;4.60;;;1.83;;
70908;SDS011;58554;52.006;5.926;2023-04-03T13:57:30;4.43;;;1.80;;
70908;SDS011;58554;52.006;5.926;2023-04-03T13:59:57;2.95;;;1.70;;
70908;SDS011;58554;52.006;5.926;2023-04-03T14:02:28;3.70;;;1.88;;
70908;SDS011;58554;52.006;5.926;2023-04-03T14:04:58;3.27;;;1.90;;
70908;SDS011;58554;52.006;5.926;2023-04-03T14:07:29;4.25;;;2.10;;
70908;SDS011;58554;52.006;5.926;2023-04-03T14:09:56;7.23;;;2.10;;
70908;SDS011;58554;52.006;5.926;2023-04-03T14:12:25;4.13;;;1.97;;
70908;SDS011;58554;52.006;5.926;2023-04-03T14:14:59;3.30;;;1.90;;
70908;SDS011;58554;52.006;5.926;2023-04-03T14:17:28;3.10;;;1.90;;
70908;SDS011;58554;52.006;5.926;2023-04-03T14:19:55;3.60;;;1.97;;
70908;SDS011;58554;52.006;5.926;2023-04-03T14:22:24;3.20;;;2.00;;
70908;SDS011;58554;52.006;5.926;2023-04-03T14:24:55;4.07;;;2.20;;
70908;SDS011;58554;52.006;5.926;2023-04-03T14:27:23;3.10;;;1.73;;
70908;SDS011;58554;52.006;5.926;2023-04-03T14:29:55;5.50;;;2.10;;
70908;SDS011;58554;52.006;5.926;2023-04-03T14:32:25;4.57;;;1.97;;
70908;SDS011;58554;52.006;5.926;2023-04-03T14:34:53;3.50;;;2.08;;
70908;SDS011;58554;52.006;5.926;2023-04-03T14:37:22;3.73;;;1.77;;
70908;SDS011;58554;52.006;5.926;2023-04-03T14:39:52;4.47;;;2.35;;
70908;SDS011;58554;52.006;5.926;2023-04-03T14:42:20;3.97;;;2.10;;
70908;SDS011;58554;52.006;5.926;2023-04-03T14:44:50;4.23;;;2.13;;
70908;SDS011;58554;52.006;5.926;2023-04-03T14:47:21;5.18;;;2.25;;
70908;SDS011;58554;52.006;5.926;2023-04-03T14:49:53;4.10;;;2.20;;
70908;SDS011;58554;52.006;5.926;2023-04-03T14:52:21;5.28;;;2.20;;
70908;SDS011;58554;52.006;5.926;2023-04-03T14:54:51;3.57;;;2.20;;
70908;SDS011;58554;52.006;5.926;2023-04-03T14:57:19;4.47;;;2.30;;
70908;SDS011;58554;52.006;5.926;2023-04-03T14:59:50;4.10;;;2.08;;
70908;SDS011;58554;52.006;5.926;2023-04-03T15:02:30;4.23;;;2.17;;
70908;SDS011;58554;52.006;5.926;2023-04-03T15:04:59;4.27;;;2.33;;
70908;SDS011;58554;52.006;5.926;2023-04-03T15:07:30;3.83;;;1.80;;
70908;SDS011;58554;52.006;5.926;2023-04-03T15:10:02;4.73;;;2.33;;
70908;SDS011;58554;52.006;5.926;2023-04-03T15:12:41;4.72;;;2.08;;
70908;SDS011;58554;52.006;5.926;2023-04-03T15:15:09;4.57;;;2.30;;
70908;SDS011;58554;52.006;5.926;2023-04-03T15:17:39;4.03;;;2.13;;
70908;SDS011;58554;52.006;5.926;2023-04-03T15:20:11;5.13;;;2.10;;
70908;SDS011;58554;52.006;5.926;2023-04-03T15:22:40;4.07;;;2.10;;
70908;SDS011;58554;52.006;5.926;2023-04-03T15:25:07;4.32;;;2.30;;
70908;SDS011;58554;52.006;5.926;2023-04-03T15:27:35;5.83;;;2.33;;
70908;SDS011;58554;52.006;5.926;2023-04-03T15:30:03;4.47;;;2.03;;
70908;SDS011;58554;52.006;5.926;2023-04-03T15:32:34;3.70;;;2.03;;
70908;SDS011;58554;52.006;5.926;2023-04-03T15:35:03;3.75;;;1.90;;
70908;SDS011;58554;52.006;5.926;2023-04-03T15:37:32;4.57;;;2.20;;
70908;SDS011;58554;52.006;5.926;2023-04-03T15:39:58;4.53;;;2.20;;
70908;SDS011;58554;52.006;5.926;2023-04-03T15:42:25;4.17;;;2.07;;
70908;SDS011;58554;52.006;5.926;2023-04-03T15:44:52;4.10;;;2.70;;
70908;SDS011;58554;52.006;5.926;2023-04-03T15:47:18;3.83;;;1.95;;
70908;SDS011;58554;52.006;5.926;2023-04-03T15:49:45;5.30;;;2.00;;
70908;SDS011;58554;52.006;5.926;2023-04-03T15:52:15;4.15;;;2.08;;
70908;SDS011;58554;52.006;5.926;2023-04-03T15:54:41;5.37;;;2.03;;
70908;SDS011;58554;52.006;5.926;2023-04-03T15:57:08;3.93;;;2.00;;
70908;SDS011;58554;52.006;5.926;2023-04-03T15:59:34;3.85;;;2.00;;
70908;SDS011;58554;52.006;5.926;2023-04-03T16:02:01;3.17;;;2.00;;
70908;SDS011;58554;52.006;5.926;2023-04-03T16:04:34;5.15;;;2.20;;
70908;SDS011;58554;52.006;5.926;2023-04-03T16:07:01;3.70;;;2.03;;
70908;SDS011;58554;52.006;5.926;2023-04-03T16:09:31;5.10;;;2.30;;
70908;SDS011;58554;52.006;5.926;2023-04-03T16:12:00;4.63;;;2.20;;
70908;SDS011;58554;52.006;5.926;2023-04-03T16:14:27;4.40;;;2.00;;